Home   Weather   USA   Eau Claire   Past weeks
Flag for USA

Past Weather in Eau Claire, Wisconsin, USA — Yesterday and Last 2 Weeks

Currently: 75 °F. Low clouds. (Weather station: Eau Claire County Airport, USA). See more current weather

Past Weather in Eau Claire — Graph

°F

Eau Claire Temperature Yesterday

Maximum temperature yesterday: 73 °F (at 9:56 am)
Minimum temperature yesterday: 64 °F (at 3:56 am)
Average temperature yesterday: 70 °F

High & Low Weather Summary for the Past Weeks

 TemperatureHumidityPressure
High96 °F (Jun 20, 3:56 pm)100% (Jun 29, 4:14 am)30.25 "Hg (Jun 29, 4:14 am)
Low50 °F (Jun 27, 5:56 am)31% (Jul 1, 4:56 pm)29.77 "Hg (Jun 30, 9:56 am)
Average72 °F67%29.98 "Hg
* Reported Jun 20 9:56 am — Jul 5 9:56 am, Eau Claire. Weather by CustomWeather, © 2022

Note: Actual official high and low records may vary slightly from our data, if they occured in-between our weather recording intervals... More about our weather records

Eau Claire Weather History for the Previous 24 Hours

Scroll right to see more
 ConditionsComfort  
Time TempWeatherWind HumidityBarometerVisibility
9:56 am
Tue, Jul 5
75 °FLow clouds.5 mph88%29.87 "Hg9 mi
8:56 am71 °FFog.3 mph96%29.87 "Hg3 mi
8:43 am71 °FFog.3 mph96%29.89 "Hg2 mi
7:56 am70 °FFog.3 mph97%29.87 "Hg6 mi
7:39 am70 °FFog.3 mph97%29.88 "Hg5 mi
7:30 am70 °FFog.6 mph97%29.88 "Hg2 mi
7:14 am70 °FFog.5 mph97%29.87 "Hg1 mi
6:56 am69 °FFog.6 mph100%29.86 "Hg0 mi
5:56 am69 °FFog.3 mph96%29.85 "Hg0 mi
5:03 am68 °FFog.No wind96%29.86 "Hg1 mi
4:39 am68 °FFog.No wind96%29.86 "Hg0 mi
4:02 am68 °FFog.No wind96%29.87 "Hg1 mi
3:56 am68 °FFog.No wind96%29.85 "Hg2 mi
3:06 am67 °FFog.No wind97%29.85 "Hg3 mi
2:43 am67 °FFog.5 mph100%29.85 "Hg1 mi
1:56 am67 °FFog.No wind100%29.85 "Hg0 mi
12:56 am67 °FFog.3 mph100%29.85 "Hg0 mi
12:08 am67 °FFog.No wind97%29.86 "Hg0 mi
11:29 pm
Mon, Jul 4
68 °FFog.3 mph96%29.86 "Hg1 mi
11:05 pm68 °FFog.5 mph96%29.86 "Hg1 mi
10:56 pm68 °FFog.3 mph96%29.85 "Hg2 mi
10:23 pm69 °FFog.3 mph93%29.86 "Hg2 mi
9:56 pm69 °FFog.No wind96%29.85 "Hg2 mi
9:08 pm70 °FPassing clouds.3 mph93%29.85 "Hg9 mi
7:56 pm73 °FPartly sunny.5 mph90%29.84 "Hg10 mi
5:56 pm73 °FOvercast.5 mph90%29.84 "Hg10 mi
4:56 pm72 °FMostly cloudy.6 mph91%29.84 "Hg10 mi
4:39 pm72 °FMore clouds than sun.7 mph91%29.85 "Hg10 mi
3:56 pm72 °FFog.7 mph93%29.85 "Hg4 mi
3:19 pm71 °FLight rain. Fog.7 mph93%29.87 "Hg4 mi
2:33 pm71 °FLight rain. Fog.7 mph93%29.88 "Hg2 mi
2:06 pm71 °FLight rain. Fog.6 mph93%29.88 "Hg3 mi
1:34 pm71 °FLight rain. Fog.5 mph90%29.90 "Hg2 mi
12:56 pm70 °FMostly cloudy.7 mph93%29.89 "Hg9 mi
11:56 am70 °FLight rain. Fog.9 mph93%29.92 "Hg4 mi
Weather by CustomWeather, © 2022

See weather overview